sensor_id;sensor_type;location;lat;lon;timestamp;temperature;humidity
20891;DHT22;10605;52.968;8.844;2023-12-20T00:01:04;5.90;99.90
20891;DHT22;10605;52.968;8.844;2023-12-20T00:03:30;5.90;99.90
20891;DHT22;10605;52.968;8.844;2023-12-20T00:05:55;5.90;99.90
20891;DHT22;10605;52.968;8.844;2023-12-20T00:08:21;5.90;99.90
20891;DHT22;10605;52.968;8.844;2023-12-20T00:10:47;5.90;99.90
20891;DHT22;10605;52.968;8.844;2023-12-20T00:13:12;5.80;99.90
20891;DHT22;10605;52.968;8.844;2023-12-20T00:15:38;5.80;99.90
20891;DHT22;10605;52.968;8.844;2023-12-20T00:18:04;5.80;99.90
20891;DHT22;10605;52.968;8.844;2023-12-20T00:20:29;5.70;99.90
20891;DHT22;10605;52.968;8.844;2023-12-20T00:22:58;5.70;99.90
20891;DHT22;10605;52.968;8.844;2023-12-20T00:25:24;5.60;99.90
20891;DHT22;10605;52.968;8.844;2023-12-20T00:27:50;5.60;99.90
20891;DHT22;10605;52.968;8.844;2023-12-20T00:30:16;5.60;99.90
20891;DHT22;10605;52.968;8.844;2023-12-20T00:32:41;5.50;99.90
20891;DHT22;10605;52.968;8.844;2023-12-20T00:35:13;5.50;99.90
20891;DHT22;10605;52.968;8.844;2023-12-20T00:37:39;5.50;99.90
20891;DHT22;10605;52.968;8.844;2023-12-20T00:40:07;5.50;99.90
20891;DHT22;10605;52.968;8.844;2023-12-20T00:42:33;5.40;99.90
20891;DHT22;10605;52.968;8.844;2023-12-20T00:44:59;5.40;99.90
20891;DHT22;10605;52.968;8.844;2023-12-20T00:47:25;5.40;99.90
20891;DHT22;10605;52.968;8.844;2023-12-20T00:49:51;5.40;99.90
20891;DHT22;10605;52.968;8.844;2023-12-20T00:52:17;5.40;99.90
20891;DHT22;10605;52.968;8.844;2023-12-20T00:54:43;5.40;99.90
20891;DHT22;10605;52.968;8.844;2023-12-20T00:57:09;5.40;99.90
20891;DHT22;10605;52.968;8.844;2023-12-20T00:59:35;5.40;99.90
20891;DHT22;10605;52.968;8.844;2023-12-20T01:02:00;5.30;99.90
20891;DHT22;10605;52.968;8.844;2023-12-20T01:04:26;5.30;99.90
20891;DHT22;10605;52.968;8.844;2023-12-20T01:06:52;5.30;99.90
20891;DHT22;10605;52.968;8.844;2023-12-20T01:09:17;5.40;99.90
20891;DHT22;10605;52.968;8.844;2023-12-20T01:11:44;5.30;99.90
20891;DHT22;10605;52.968;8.844;2023-12-20T01:14:09;5.30;99.90
20891;DHT22;10605;52.968;8.844;2023-12-20T01:16:35;5.30;99.90
20891;DHT22;10605;52.968;8.844;2023-12-20T01:19:00;5.30;99.90
20891;DHT22;10605;52.968;8.844;2023-12-20T01:21:26;5.20;99.90
20891;DHT22;10605;52.968;8.844;2023-12-20T01:23:52;5.30;99.90
20891;DHT22;10605;52.968;8.844;2023-12-20T01:26:17;5.20;99.90
20891;DHT22;10605;52.968;8.844;2023-12-20T01:28:43;5.30;99.90
20891;DHT22;10605;52.968;8.844;2023-12-20T01:31:08;5.30;99.90
20891;DHT22;10605;52.968;8.844;2023-12-20T01:33:34;5.30;99.90
20891;DHT22;10605;52.968;8.844;2023-12-20T01:36:00;5.40;99.90
20891;DHT22;10605;52.968;8.844;2023-12-20T01:38:26;5.40;99.90
20891;DHT22;10605;52.968;8.844;2023-12-20T01:40:51;5.50;99.90
20891;DHT22;10605;52.968;8.844;2023-12-20T01:43:17;5.50;99.90
20891;DHT22;10605;52.968;8.844;2023-12-20T01:45:42;5.50;99.90
20891;DHT22;10605;52.968;8.844;2023-12-20T01:48:09;5.50;99.90
20891;DHT22;10605;52.968;8.844;2023-12-20T01:50:36;5.50;99.90
20891;DHT22;10605;52.968;8.844;2023-12-20T01:53:04;5.40;99.90
20891;DHT22;10605;52.968;8.844;2023-12-20T01:55:32;5.40;99.90
20891;DHT22;10605;52.968;8.844;2023-12-20T01:57:59;5.30;99.90
20891;DHT22;10605;52.968;8.844;2023-12-20T02:00:25;5.30;99.90
20891;DHT22;10605;52.968;8.844;2023-12-20T02:02:53;5.30;99.90
20891;DHT22;10605;52.968;8.844;2023-12-20T02:05:21;5.20;99.90
20891;DHT22;10605;52.968;8.844;2023-12-20T02:07:47;5.30;99.90
20891;DHT22;10605;52.968;8.844;2023-12-20T02:10:14;5.20;99.90
20891;DHT22;10605;52.968;8.844;2023-12-20T02:12:40;5.20;99.90
20891;DHT22;10605;52.968;8.844;2023-12-20T02:15:06;5.20;99.90
20891;DHT22;10605;52.968;8.844;2023-12-20T02:17:32;5.20;99.90
20891;DHT22;10605;52.968;8.844;2023-12-20T02:19:59;5.20;99.90
20891;DHT22;10605;52.968;8.844;2023-12-20T02:22:24;5.20;99.90
20891;DHT22;10605;52.968;8.844;2023-12-20T02:24:50;5.20;99.90
20891;DHT22;10605;52.968;8.844;2023-12-20T02:27:18;5.20;99.90
20891;DHT22;10605;52.968;8.844;2023-12-20T02:29:46;5.20;99.90
20891;DHT22;10605;52.968;8.844;2023-12-20T02:32:12;5.20;99.90
20891;DHT22;10605;52.968;8.844;2023-12-20T02:34:38;5.10;99.90
20891;DHT22;10605;52.968;8.844;2023-12-20T02:37:03;5.10;99.90
20891;DHT22;10605;52.968;8.844;2023-12-20T02:39:30;5.10;99.90
20891;DHT22;10605;52.968;8.844;2023-12-20T02:41:55;5.20;99.90
20891;DHT22;10605;52.968;8.844;2023-12-20T02:44:21;5.20;99.90
20891;DHT22;10605;52.968;8.844;2023-12-20T02:46:47;5.20;99.90
20891;DHT22;10605;52.968;8.844;2023-12-20T02:49:12;5.20;99.90
20891;DHT22;10605;52.968;8.844;2023-12-20T02:51:38;5.20;99.90
20891;DHT22;10605;52.968;8.844;2023-12-20T02:54:04;5.30;99.90
20891;DHT22;10605;52.968;8.844;2023-12-20T02:56:31;5.20;99.90
20891;DHT22;10605;52.968;8.844;2023-12-20T02:58:57;5.30;99.90
20891;DHT22;10605;52.968;8.844;2023-12-20T03:01:22;5.30;99.90
20891;DHT22;10605;52.968;8.844;2023-12-20T03:03:48;5.30;99.90
20891;DHT22;10605;52.968;8.844;2023-12-20T03:06:20;5.40;99.90
20891;DHT22;10605;52.968;8.844;2023-12-20T03:08:46;5.30;99.90
20891;DHT22;10605;52.968;8.844;2023-12-20T03:11:11;5.40;99.90
20891;DHT22;10605;52.968;8.844;2023-12-20T03:13:37;5.40;99.90
20891;DHT22;10605;52.968;8.844;2023-12-20T03:16:13;5.40;99.90
20891;DHT22;10605;52.968;8.844;2023-12-20T03:18:39;5.40;99.90
20891;DHT22;10605;52.968;8.844;2023-12-20T03:21:05;5.40;99.90
20891;DHT22;10605;52.968;8.844;2023-12-20T03:23:31;5.40;99.90
20891;DHT22;10605;52.968;8.844;2023-12-20T03:25:59;5.40;99.90
20891;DHT22;10605;52.968;8.844;2023-12-20T03:28:25;5.40;99.90
20891;DHT22;10605;52.968;8.844;2023-12-20T03:30:51;5.50;99.90
20891;DHT22;10605;52.968;8.844;2023-12-20T03:33:17;5.50;99.90
20891;DHT22;10605;52.968;8.844;2023-12-20T03:35:42;5.50;99.90
20891;DHT22;10605;52.968;8.844;2023-12-20T03:38:08;5.50;99.90
20891;DHT22;10605;52.968;8.844;2023-12-20T03:40:34;5.50;99.90
20891;DHT22;10605;52.968;8.844;2023-12-20T03:43:00;5.60;99.90
20891;DHT22;10605;52.968;8.844;2023-12-20T03:45:25;5.60;99.90
20891;DHT22;10605;52.968;8.844;2023-12-20T03:47:51;5.60;99.90
20891;DHT22;10605;52.968;8.844;2023-12-20T03:50:23;5.70;99.90
20891;DHT22;10605;52.968;8.844;2023-12-20T03:52:49;5.70;99.90
20891;DHT22;10605;52.968;8.844;2023-12-20T03:55:15;5.60;99.90
20891;DHT22;10605;52.968;8.844;2023-12-20T03:57:41;5.70;99.90
20891;DHT22;10605;52.968;8.844;2023-12-20T04:00:10;5.70;99.90
20891;DHT22;10605;52.968;8.844;2023-12-20T04:02:40;5.70;99.90
20891;DHT22;10605;52.968;8.844;2023-12-20T04:05:06;5.70;99.90
20891;DHT22;10605;52.968;8.844;2023-12-20T04:07:32;5.70;99.90
20891;DHT22;10605;52.968;8.844;2023-12-20T04:09:58;5.70;99.90
20891;DHT22;10605;52.968;8.844;2023-12-20T04:12:23;5.80;99.90
20891;DHT22;10605;52.968;8.844;2023-12-20T04:14:49;5.80;99.90
20891;DHT22;10605;52.968;8.844;2023-12-20T04:17:15;5.80;99.90
20891;DHT22;10605;52.968;8.844;2023-12-20T04:19:44;5.80;99.90
20891;DHT22;10605;52.968;8.844;2023-12-20T04:22:10;5.80;99.90
20891;DHT22;10605;52.968;8.844;2023-12-20T04:24:35;5.80;99.90
20891;DHT22;10605;52.968;8.844;2023-12-20T04:27:01;5.80;99.90
20891;DHT22;10605;52.968;8.844;2023-12-20T04:29:27;5.80;99.90
20891;DHT22;10605;52.968;8.844;2023-12-20T04:31:53;5.80;99.90
20891;DHT22;10605;52.968;8.844;2023-12-20T04:34:18;5.90;99.90
20891;DHT22;10605;52.968;8.844;2023-12-20T04:36:44;5.90;99.90
20891;DHT22;10605;52.968;8.844;2023-12-20T04:39:12;5.90;99.90
20891;DHT22;10605;52.968;8.844;2023-12-20T04:41:38;5.90;99.90
20891;DHT22;10605;52.968;8.844;2023-12-20T04:44:06;5.80;99.90
20891;DHT22;10605;52.968;8.844;2023-12-20T04:46:31;5.90;99.90
20891;DHT22;10605;52.968;8.844;2023-12-20T04:48:57;5.80;99.90
20891;DHT22;10605;52.968;8.844;2023-12-20T04:51:23;5.90;99.90
20891;DHT22;10605;52.968;8.844;2023-12-20T04:53:48;5.80;99.90
20891;DHT22;10605;52.968;8.844;2023-12-20T04:56:14;5.80;99.90
20891;DHT22;10605;52.968;8.844;2023-12-20T04:58:40;5.90;99.90
20891;DHT22;10605;52.968;8.844;2023-12-20T05:01:08;5.90;99.90
20891;DHT22;10605;52.968;8.844;2023-12-20T05:03:34;5.90;99.90
20891;DHT22;10605;52.968;8.844;2023-12-20T05:06:00;5.90;99.90
20891;DHT22;10605;52.968;8.844;2023-12-20T05:08:26;5.90;99.90
20891;DHT22;10605;52.968;8.844;2023-12-20T05:10:54;5.90;99.90
20891;DHT22;10605;52.968;8.844;2023-12-20T05:13:20;5.90;99.90
20891;DHT22;10605;52.968;8.844;2023-12-20T05:15:46;5.80;99.90
20891;DHT22;10605;52.968;8.844;2023-12-20T05:18:12;5.90;99.90
20891;DHT22;10605;52.968;8.844;2023-12-20T05:20:38;5.90;99.90
20891;DHT22;10605;52.968;8.844;2023-12-20T05:23:04;5.90;99.90
20891;DHT22;10605;52.968;8.844;2023-12-20T05:25:29;5.90;99.90
20891;DHT22;10605;52.968;8.844;2023-12-20T05:27:55;5.90;99.90
20891;DHT22;10605;52.968;8.844;2023-12-20T05:30:21;5.90;99.90
20891;DHT22;10605;52.968;8.844;2023-12-20T05:32:47;6.00;99.90
20891;DHT22;10605;52.968;8.844;2023-12-20T05:35:12;6.00;99.90
20891;DHT22;10605;52.968;8.844;2023-12-20T05:37:38;6.10;99.90
20891;DHT22;10605;52.968;8.844;2023-12-20T05:40:04;6.10;99.90
20891;DHT22;10605;52.968;8.844;2023-12-20T05:42:30;6.10;99.90
20891;DHT22;10605;52.968;8.844;2023-12-20T05:44:55;6.10;99.90
20891;DHT22;10605;52.968;8.844;2023-12-20T05:47:21;6.10;99.90
20891;DHT22;10605;52.968;8.844;2023-12-20T05:49:46;6.10;99.90
20891;DHT22;10605;52.968;8.844;2023-12-20T05:52:12;6.00;99.90
20891;DHT22;10605;52.968;8.844;2023-12-20T05:54:38;6.00;99.90
20891;DHT22;10605;52.968;8.844;2023-12-20T05:57:04;6.00;99.90
20891;DHT22;10605;52.968;8.844;2023-12-20T05:59:29;6.00;99.90
20891;DHT22;10605;52.968;8.844;2023-12-20T06:01:55;6.10;99.90
20891;DHT22;10605;52.968;8.844;2023-12-20T06:04:20;6.10;99.90
20891;DHT22;10605;52.968;8.844;2023-12-20T06:06:46;6.10;99.90
20891;DHT22;10605;52.968;8.844;2023-12-20T06:09:12;6.10;99.90
20891;DHT22;10605;52.968;8.844;2023-12-20T06:11:38;6.10;99.90
20891;DHT22;10605;52.968;8.844;2023-12-20T06:14:03;6.20;99.90
20891;DHT22;10605;52.968;8.844;2023-12-20T06:16:29;6.20;99.90
20891;DHT22;10605;52.968;8.844;2023-12-20T06:18:54;6.20;99.90
20891;DHT22;10605;52.968;8.844;2023-12-20T06:21:20;6.20;99.90
20891;DHT22;10605;52.968;8.844;2023-12-20T06:23:46;6.20;99.90
20891;DHT22;10605;52.968;8.844;2023-12-20T06:26:11;6.30;99.90
20891;DHT22;10605;52.968;8.844;2023-12-20T06:28:37;6.30;99.90
20891;DHT22;10605;52.968;8.844;2023-12-20T06:31:03;6.30;99.90
20891;DHT22;10605;52.968;8.844;2023-12-20T06:33:29;6.20;99.90
20891;DHT22;10605;52.968;8.844;2023-12-20T06:35:56;6.20;99.90
20891;DHT22;10605;52.968;8.844;2023-12-20T06:38:23;6.20;99.90
20891;DHT22;10605;52.968;8.844;2023-12-20T06:40:48;6.20;99.90
20891;DHT22;10605;52.968;8.844;2023-12-20T06:43:14;6.20;99.90
20891;DHT22;10605;52.968;8.844;2023-12-20T06:45:40;6.20;99.90
20891;DHT22;10605;52.968;8.844;2023-12-20T06:48:06;6.20;99.90
20891;DHT22;10605;52.968;8.844;2023-12-20T06:50:32;6.20;99.90
20891;DHT22;10605;52.968;8.844;2023-12-20T06:52:57;6.30;99.90
20891;DHT22;10605;52.968;8.844;2023-12-20T06:55:23;6.30;99.90
20891;DHT22;10605;52.968;8.844;2023-12-20T06:57:49;6.20;99.90
20891;DHT22;10605;52.968;8.844;2023-12-20T07:00:15;6.10;99.90
20891;DHT22;10605;52.968;8.844;2023-12-20T07:02:40;6.10;99.90
20891;DHT22;10605;52.968;8.844;2023-12-20T07:05:06;6.10;99.90
20891;DHT22;10605;52.968;8.844;2023-12-20T07:07:32;6.10;99.90
20891;DHT22;10605;52.968;8.844;2023-12-20T07:09:58;6.10;99.90
20891;DHT22;10605;52.968;8.844;2023-12-20T07:12:23;6.10;99.90
20891;DHT22;10605;52.968;8.844;2023-12-20T07:14:49;6.10;99.90
20891;DHT22;10605;52.968;8.844;2023-12-20T07:17:14;6.30;99.90
20891;DHT22;10605;52.968;8.844;2023-12-20T07:19:41;6.30;99.90
20891;DHT22;10605;52.968;8.844;2023-12-20T07:22:07;6.40;99.90
20891;DHT22;10605;52.968;8.844;2023-12-20T07:24:33;6.40;99.90
20891;DHT22;10605;52.968;8.844;2023-12-20T07:27:00;6.40;99.90
20891;DHT22;10605;52.968;8.844;2023-12-20T07:29:25;6.40;99.90
20891;DHT22;10605;52.968;8.844;2023-12-20T07:31:53;6.40;99.90
20891;DHT22;10605;52.968;8.844;2023-12-20T07:34:22;6.40;99.90
20891;DHT22;10605;52.968;8.844;2023-12-20T07:36:48;6.40;99.90
20891;DHT22;10605;52.968;8.844;2023-12-20T07:39:14;6.40;99.90
20891;DHT22;10605;52.968;8.844;2023-12-20T07:41:40;6.50;99.90
20891;DHT22;10605;52.968;8.844;2023-12-20T07:44:06;6.60;99.90
20891;DHT22;10605;52.968;8.844;2023-12-20T07:46:31;6.60;99.90
20891;DHT22;10605;52.968;8.844;2023-12-20T07:48:57;6.60;99.90
20891;DHT22;10605;52.968;8.844;2023-12-20T07:51:23;6.70;99.90
20891;DHT22;10605;52.968;8.844;2023-12-20T07:53:48;6.70;99.90
20891;DHT22;10605;52.968;8.844;2023-12-20T07:56:18;6.70;99.90
20891;DHT22;10605;52.968;8.844;2023-12-20T07:58:45;6.70;99.90
20891;DHT22;10605;52.968;8.844;2023-12-20T08:01:11;6.70;99.90
20891;DHT22;10605;52.968;8.844;2023-12-20T08:03:37;6.70;99.90
20891;DHT22;10605;52.968;8.844;2023-12-20T08:06:03;6.70;99.90
20891;DHT22;10605;52.968;8.844;2023-12-20T08:08:29;6.70;99.90
20891;DHT22;10605;52.968;8.844;2023-12-20T08:10:54;6.70;99.90
20891;DHT22;10605;52.968;8.844;2023-12-20T08:13:20;6.90;99.90
20891;DHT22;10605;52.968;8.844;2023-12-20T08:15:50;7.00;99.90
20891;DHT22;10605;52.968;8.844;2023-12-20T08:18:16;7.00;99.90
20891;DHT22;10605;52.968;8.844;2023-12-20T08:20:41;7.10;99.90
20891;DHT22;10605;52.968;8.844;2023-12-20T08:23:07;7.00;99.90
20891;DHT22;10605;52.968;8.844;2023-12-20T08:25:32;7.00;99.90
20891;DHT22;10605;52.968;8.844;2023-12-20T08:27:58;7.00;99.90
20891;DHT22;10605;52.968;8.844;2023-12-20T08:30:23;7.00;99.90
20891;DHT22;10605;52.968;8.844;2023-12-20T08:32:50;7.00;99.90
20891;DHT22;10605;52.968;8.844;2023-12-20T08:35:16;7.00;99.90
20891;DHT22;10605;52.968;8.844;2023-12-20T08:37:43;7.10;99.90
20891;DHT22;10605;52.968;8.844;2023-12-20T08:40:09;7.10;99.90
20891;DHT22;10605;52.968;8.844;2023-12-20T08:42:35;7.10;99.90
20891;DHT22;10605;52.968;8.844;2023-12-20T08:45:00;7.20;99.90
20891;DHT22;10605;52.968;8.844;2023-12-20T08:47:26;7.30;99.90
20891;DHT22;10605;52.968;8.844;2023-12-20T08:49:52;7.30;99.90
20891;DHT22;10605;52.968;8.844;2023-12-20T08:52:22;7.30;99.90
20891;DHT22;10605;52.968;8.844;2023-12-20T08:54:49;7.40;99.90
20891;DHT22;10605;52.968;8.844;2023-12-20T08:57:20;7.60;99.90
20891;DHT22;10605;52.968;8.844;2023-12-20T08:59:47;7.50;99.90
20891;DHT22;10605;52.968;8.844;2023-12-20T09:02:13;7.40;99.90
20891;DHT22;10605;52.968;8.844;2023-12-20T09:04:39;7.50;99.90
20891;DHT22;10605;52.968;8.844;2023-12-20T09:07:04;7.50;99.90
20891;DHT22;10605;52.968;8.844;2023-12-20T09:09:30;7.40;99.90
20891;DHT22;10605;52.968;8.844;2023-12-20T09:11:57;7.30;99.90
20891;DHT22;10605;52.968;8.844;2023-12-20T09:14:23;7.30;99.90
20891;DHT22;10605;52.968;8.844;2023-12-20T09:16:49;7.20;99.90
20891;DHT22;10605;52.968;8.844;2023-12-20T09:19:17;7.30;99.90
20891;DHT22;10605;52.968;8.844;2023-12-20T09:21:43;7.30;99.90
20891;DHT22;10605;52.968;8.844;2023-12-20T09:24:08;7.30;99.90
20891;DHT22;10605;52.968;8.844;2023-12-20T09:26:34;7.30;99.90
20891;DHT22;10605;52.968;8.844;2023-12-20T09:29:00;7.50;99.90
20891;DHT22;10605;52.968;8.844;2023-12-20T09:31:25;7.50;99.90
20891;DHT22;10605;52.968;8.844;2023-12-20T09:33:51;7.40;99.90
20891;DHT22;10605;52.968;8.844;2023-12-20T09:36:17;7.40;99.90
20891;DHT22;10605;52.968;8.844;2023-12-20T09:38:42;7.40;99.90
20891;DHT22;10605;52.968;8.844;2023-12-20T09:41:08;7.40;99.90
20891;DHT22;10605;52.968;8.844;2023-12-20T09:43:37;7.40;99.90
20891;DHT22;10605;52.968;8.844;2023-12-20T09:46:05;7.40;99.90
20891;DHT22;10605;52.968;8.844;2023-12-20T09:48:31;7.40;99.90
20891;DHT22;10605;52.968;8.844;2023-12-20T09:50:58;7.60;99.90
20891;DHT22;10605;52.968;8.844;2023-12-20T09:53:25;7.80;99.90
20891;DHT22;10605;52.968;8.844;2023-12-20T09:55:58;7.90;99.90
20891;DHT22;10605;52.968;8.844;2023-12-20T09:58:24;8.00;99.90
20891;DHT22;10605;52.968;8.844;2023-12-20T10:00:50;8.00;99.90
20891;DHT22;10605;52.968;8.844;2023-12-20T10:03:16;7.80;99.90
20891;DHT22;10605;52.968;8.844;2023-12-20T10:05:44;7.60;99.90
20891;DHT22;10605;52.968;8.844;2023-12-20T10:08:10;7.50;99.90
20891;DHT22;10605;52.968;8.844;2023-12-20T10:10:35;6.60;99.90
20891;DHT22;10605;52.968;8.844;2023-12-20T10:13:09;6.20;99.90
20891;DHT22;10605;52.968;8.844;2023-12-20T10:15:36;6.00;99.90
20891;DHT22;10605;52.968;8.844;2023-12-20T10:18:02;5.80;99.90
20891;DHT22;10605;52.968;8.844;2023-12-20T10:20:29;5.60;99.90
20891;DHT22;10605;52.968;8.844;2023-12-20T10:22:59;5.60;99.90
20891;DHT22;10605;52.968;8.844;2023-12-20T10:25:25;5.60;99.90
20891;DHT22;10605;52.968;8.844;2023-12-20T10:28:12;5.60;99.90
20891;DHT22;10605;52.968;8.844;2023-12-20T10:30:38;5.60;99.90
20891;DHT22;10605;52.968;8.844;2023-12-20T10:33:08;5.60;99.90
20891;DHT22;10605;52.968;8.844;2023-12-20T10:35:35;5.60;99.90
20891;DHT22;10605;52.968;8.844;2023-12-20T10:38:04;5.60;99.90
20891;DHT22;10605;52.968;8.844;2023-12-20T10:40:31;5.70;99.90
20891;DHT22;10605;52.968;8.844;2023-12-20T10:42:58;5.70;99.90
20891;DHT22;10605;52.968;8.844;2023-12-20T10:45:24;5.70;99.90
20891;DHT22;10605;52.968;8.844;2023-12-20T10:47:51;5.80;99.90
20891;DHT22;10605;52.968;8.844;2023-12-20T10:50:18;6.00;99.90
20891;DHT22;10605;52.968;8.844;2023-12-20T10:52:44;6.10;99.90
20891;DHT22;10605;52.968;8.844;2023-12-20T10:55:11;6.20;99.90
20891;DHT22;10605;52.968;8.844;2023-12-20T10:57:36;6.40;99.90
20891;DHT22;10605;52.968;8.844;2023-12-20T11:00:03;6.40;99.90
20891;DHT22;10605;52.968;8.844;2023-12-20T11:02:32;6.60;99.90
20891;DHT22;10605;52.968;8.844;2023-12-20T11:07:55;6.70;99.90
20891;DHT22;10605;52.968;8.844;2023-12-20T11:10:26;6.60;99.90
20891;DHT22;10605;52.968;8.844;2023-12-20T11:13:08;6.50;99.90
20891;DHT22;10605;52.968;8.844;2023-12-20T11:15:36;6.50;99.90
20891;DHT22;10605;52.968;8.844;2023-12-20T11:18:03;6.40;99.90
20891;DHT22;10605;52.968;8.844;2023-12-20T11:20:39;6.50;99.90
20891;DHT22;10605;52.968;8.844;2023-12-20T11:23:06;6.50;99.90
20891;DHT22;10605;52.968;8.844;2023-12-20T11:25:56;6.60;99.90
20891;DHT22;10605;52.968;8.844;2023-12-20T11:28:25;6.70;99.90
20891;DHT22;10605;52.968;8.844;2023-12-20T11:30:55;6.70;99.90
20891;DHT22;10605;52.968;8.844;2023-12-20T11:33:26;6.70;99.90
20891;DHT22;10605;52.968;8.844;2023-12-20T11:35:52;6.70;99.90
20891;DHT22;10605;52.968;8.844;2023-12-20T11:38:21;6.90;99.90
20891;DHT22;10605;52.968;8.844;2023-12-20T11:40:49;6.80;99.90
20891;DHT22;10605;52.968;8.844;2023-12-20T11:43:31;6.80;99.90
20891;DHT22;10605;52.968;8.844;2023-12-20T11:46:07;6.90;99.90
20891;DHT22;10605;52.968;8.844;2023-12-20T11:48:35;6.90;99.90
20891;DHT22;10605;52.968;8.844;2023-12-20T11:51:01;7.00;99.90
20891;DHT22;10605;52.968;8.844;2023-12-20T11:53:29;7.00;99.90
20891;DHT22;10605;52.968;8.844;2023-12-20T11:55:56;7.00;99.90
20891;DHT22;10605;52.968;8.844;2023-12-20T11:58:21;7.10;99.90
20891;DHT22;10605;52.968;8.844;2023-12-20T12:00:49;7.20;99.90
20891;DHT22;10605;52.968;8.844;2023-12-20T12:03:15;7.30;99.90
20891;DHT22;10605;52.968;8.844;2023-12-20T12:05:41;7.30;99.90
20891;DHT22;10605;52.968;8.844;2023-12-20T12:08:07;7.50;99.90
20891;DHT22;10605;52.968;8.844;2023-12-20T12:10:33;7.40;99.90
20891;DHT22;10605;52.968;8.844;2023-12-20T12:12:59;7.30;99.90
20891;DHT22;10605;52.968;8.844;2023-12-20T12:15:26;7.30;99.90
20891;DHT22;10605;52.968;8.844;2023-12-20T12:17:56;7.20;99.90
20891;DHT22;10605;52.968;8.844;2023-12-20T12:20:22;7.30;99.90
20891;DHT22;10605;52.968;8.844;2023-12-20T12:23:02;7.20;99.90
20891;DHT22;10605;52.968;8.844;2023-12-20T12:25:30;7.20;99.90
20891;DHT22;10605;52.968;8.844;2023-12-20T12:27:58;7.30;99.90
20891;DHT22;10605;52.968;8.844;2023-12-20T12:30:23;7.30;99.90
20891;DHT22;10605;52.968;8.844;2023-12-20T12:32:51;7.40;99.90
20891;DHT22;10605;52.968;8.844;2023-12-20T12:35:17;7.60;99.90
20891;DHT22;10605;52.968;8.844;2023-12-20T12:37:43;7.80;99.90
20891;DHT22;10605;52.968;8.844;2023-12-20T12:40:13;8.00;99.90
20891;DHT22;10605;52.968;8.844;2023-12-20T12:42:40;8.00;99.90
20891;DHT22;10605;52.968;8.844;2023-12-20T12:45:06;7.80;99.90
20891;DHT22;10605;52.968;8.844;2023-12-20T12:47:33;7.80;99.90
20891;DHT22;10605;52.968;8.844;2023-12-20T12:49:59;7.70;99.90
20891;DHT22;10605;52.968;8.844;2023-12-20T12:52:24;7.60;99.90
20891;DHT22;10605;52.968;8.844;2023-12-20T12:54:52;7.60;99.90
20891;DHT22;10605;52.968;8.844;2023-12-20T12:57:17;7.80;99.90
20891;DHT22;10605;52.968;8.844;2023-12-20T12:59:44;7.80;99.90
20891;DHT22;10605;52.968;8.844;2023-12-20T13:02:14;7.90;99.90
20891;DHT22;10605;52.968;8.844;2023-12-20T13:04:41;8.00;99.90
20891;DHT22;10605;52.968;8.844;2023-12-20T13:07:09;8.20;99.90
20891;DHT22;10605;52.968;8.844;2023-12-20T13:09:38;8.20;99.90
20891;DHT22;10605;52.968;8.844;2023-12-20T13:12:07;7.90;99.90
20891;DHT22;10605;52.968;8.844;2023-12-20T13:14:34;7.70;99.90
20891;DHT22;10605;52.968;8.844;2023-12-20T13:17:03;7.60;99.90
20891;DHT22;10605;52.968;8.844;2023-12-20T13:19:29;7.60;99.90
20891;DHT22;10605;52.968;8.844;2023-12-20T13:21:56;7.60;99.90
20891;DHT22;10605;52.968;8.844;2023-12-20T13:24:21;7.50;99.90
20891;DHT22;10605;52.968;8.844;2023-12-20T13:26:47;7.40;99.90
20891;DHT22;10605;52.968;8.844;2023-12-20T13:29:12;7.40;99.90
20891;DHT22;10605;52.968;8.844;2023-12-20T13:31:38;7.40;99.90
20891;DHT22;10605;52.968;8.844;2023-12-20T13:34:05;7.30;99.90
20891;DHT22;10605;52.968;8.844;2023-12-20T13:36:31;7.30;99.90
20891;DHT22;10605;52.968;8.844;2023-12-20T13:38:57;7.30;99.90
20891;DHT22;10605;52.968;8.844;2023-12-20T13:41:22;7.30;99.90
20891;DHT22;10605;52.968;8.844;2023-12-20T13:43:48;7.20;99.90
20891;DHT22;10605;52.968;8.844;2023-12-20T13:46:14;7.20;99.90
20891;DHT22;10605;52.968;8.844;2023-12-20T13:48:39;7.30;99.90
20891;DHT22;10605;52.968;8.844;2023-12-20T13:51:05;7.30;99.90
20891;DHT22;10605;52.968;8.844;2023-12-20T13:53:31;7.20;99.90
20891;DHT22;10605;52.968;8.844;2023-12-20T13:55:57;7.00;99.90
20891;DHT22;10605;52.968;8.844;2023-12-20T13:58:23;6.90;99.90
20891;DHT22;10605;52.968;8.844;2023-12-20T14:00:49;6.80;99.90
20891;DHT22;10605;52.968;8.844;2023-12-20T14:03:14;6.80;99.90
20891;DHT22;10605;52.968;8.844;2023-12-20T14:05:40;6.70;99.90
20891;DHT22;10605;52.968;8.844;2023-12-20T14:08:06;6.70;99.90
20891;DHT22;10605;52.968;8.844;2023-12-20T14:10:32;6.60;99.90
20891;DHT22;10605;52.968;8.844;2023-12-20T14:12:58;6.60;99.90
20891;DHT22;10605;52.968;8.844;2023-12-20T14:15:24;6.60;99.90
20891;DHT22;10605;52.968;8.844;2023-12-20T14:17:50;6.70;99.90
20891;DHT22;10605;52.968;8.844;2023-12-20T14:20:16;6.60;99.90
20891;DHT22;10605;52.968;8.844;2023-12-20T14:22:42;6.60;99.90
20891;DHT22;10605;52.968;8.844;2023-12-20T14:25:12;6.60;99.90
20891;DHT22;10605;52.968;8.844;2023-12-20T14:27:39;6.60;99.90
20891;DHT22;10605;52.968;8.844;2023-12-20T14:30:05;6.60;99.90
20891;DHT22;10605;52.968;8.844;2023-12-20T14:32:31;6.60;99.90
20891;DHT22;10605;52.968;8.844;2023-12-20T14:34:57;6.50;99.90
20891;DHT22;10605;52.968;8.844;2023-12-20T14:37:23;6.50;99.90
20891;DHT22;10605;52.968;8.844;2023-12-20T14:39:49;6.50;99.90
20891;DHT22;10605;52.968;8.844;2023-12-20T14:42:15;6.40;99.90
20891;DHT22;10605;52.968;8.844;2023-12-20T14:44:41;6.40;99.90
20891;DHT22;10605;52.968;8.844;2023-12-20T14:47:06;6.50;99.90
20891;DHT22;10605;52.968;8.844;2023-12-20T14:49:32;6.50;99.90
20891;DHT22;10605;52.968;8.844;2023-12-20T14:51:58;6.40;99.90
20891;DHT22;10605;52.968;8.844;2023-12-20T14:54:24;6.40;99.90
20891;DHT22;10605;52.968;8.844;2023-12-20T14:56:50;6.40;99.90
20891;DHT22;10605;52.968;8.844;2023-12-20T14:59:16;6.40;99.90
20891;DHT22;10605;52.968;8.844;2023-12-20T15:01:41;6.40;99.90
20891;DHT22;10605;52.968;8.844;2023-12-20T15:04:08;6.40;99.90
20891;DHT22;10605;52.968;8.844;2023-12-20T15:06:33;6.40;99.90
20891;DHT22;10605;52.968;8.844;2023-12-20T15:08:59;6.40;99.90
20891;DHT22;10605;52.968;8.844;2023-12-20T15:11:25;6.40;99.90
20891;DHT22;10605;52.968;8.844;2023-12-20T15:13:51;6.40;99.90
20891;DHT22;10605;52.968;8.844;2023-12-20T15:16:22;6.40;99.90
20891;DHT22;10605;52.968;8.844;2023-12-20T15:18:48;6.40;99.90
20891;DHT22;10605;52.968;8.844;2023-12-20T15:21:15;6.40;99.90
20891;DHT22;10605;52.968;8.844;2023-12-20T15:23:40;6.40;99.90
20891;DHT22;10605;52.968;8.844;2023-12-20T15:26:16;6.40;99.90
20891;DHT22;10605;52.968;8.844;2023-12-20T15:28:42;6.40;99.90
20891;DHT22;10605;52.968;8.844;2023-12-20T15:31:08;6.40;99.90
20891;DHT22;10605;52.968;8.844;2023-12-20T15:33:33;6.40;99.90
20891;DHT22;10605;52.968;8.844;2023-12-20T15:35:59;6.40;99.90
20891;DHT22;10605;52.968;8.844;2023-12-20T15:38:24;6.40;99.90
20891;DHT22;10605;52.968;8.844;2023-12-20T15:40:50;6.40;99.90
20891;DHT22;10605;52.968;8.844;2023-12-20T15:43:16;6.50;99.90